sensor_id;sensor_type;location;lat;lon;timestamp;P1;durP1;ratioP1;P2;durP2;ratioP2
60588;SDS011;46421;48.610;9.334;2023-12-20T00:01:19;2.27;;;0.80;;
60588;SDS011;46421;48.610;9.334;2023-12-20T00:03:44;3.03;;;1.13;;
60588;SDS011;46421;48.610;9.334;2023-12-20T00:06:09;2.17;;;0.77;;
60588;SDS011;46421;48.610;9.334;2023-12-20T00:08:37;2.30;;;1.00;;
60588;SDS011;46421;48.610;9.334;2023-12-20T00:11:02;2.63;;;1.02;;
60588;SDS011;46421;48.610;9.334;2023-12-20T00:13:28;1.95;;;0.70;;
60588;SDS011;46421;48.610;9.334;2023-12-20T00:15:53;3.43;;;0.90;;
60588;SDS011;46421;48.610;9.334;2023-12-20T00:18:18;1.97;;;0.80;;
60588;SDS011;46421;48.610;9.334;2023-12-20T00:20:44;3.22;;;0.90;;
60588;SDS011;46421;48.610;9.334;2023-12-20T00:23:09;1.25;;;0.70;;
60588;SDS011;46421;48.610;9.334;2023-12-20T00:25:35;3.20;;;1.10;;
60588;SDS011;46421;48.610;9.334;2023-12-20T00:28:00;2.05;;;0.90;;
60588;SDS011;46421;48.610;9.334;2023-12-20T00:30:26;1.45;;;0.75;;
60588;SDS011;46421;48.610;9.334;2023-12-20T00:32:51;1.75;;;0.75;;
60588;SDS011;46421;48.610;9.334;2023-12-20T00:35:17;3.03;;;0.98;;
60588;SDS011;46421;48.610;9.334;2023-12-20T00:37:42;3.22;;;0.80;;
60588;SDS011;46421;48.610;9.334;2023-12-20T00:40:08;2.70;;;0.70;;
60588;SDS011;46421;48.610;9.334;2023-12-20T00:42:34;1.88;;;0.73;;
60588;SDS011;46421;48.610;9.334;2023-12-20T00:45:00;1.83;;;0.73;;
60588;SDS011;46421;48.610;9.334;2023-12-20T00:47:25;4.13;;;0.87;;
60588;SDS011;46421;48.610;9.334;2023-12-20T00:49:51;1.88;;;0.70;;
60588;SDS011;46421;48.610;9.334;2023-12-20T00:52:16;2.08;;;0.77;;
60588;SDS011;46421;48.610;9.334;2023-12-20T00:54:47;2.03;;;0.70;;
60588;SDS011;46421;48.610;9.334;2023-12-20T00:57:12;1.15;;;0.50;;
60588;SDS011;46421;48.610;9.334;2023-12-20T00:59:37;1.08;;;0.50;;
60588;SDS011;46421;48.610;9.334;2023-12-20T01:02:03;1.43;;;0.53;;
60588;SDS011;46421;48.610;9.334;2023-12-20T01:04:28;1.48;;;0.57;;
60588;SDS011;46421;48.610;9.334;2023-12-20T01:06:54;1.17;;;0.60;;
60588;SDS011;46421;48.610;9.334;2023-12-20T01:09:19;0.85;;;0.30;;
60588;SDS011;46421;48.610;9.334;2023-12-20T01:11:44;1.35;;;0.60;;
60588;SDS011;46421;48.610;9.334;2023-12-20T01:14:11;0.98;;;0.50;;
60588;SDS011;46421;48.610;9.334;2023-12-20T01:16:37;1.58;;;0.50;;
60588;SDS011;46421;48.610;9.334;2023-12-20T01:19:02;1.60;;;0.40;;
60588;SDS011;46421;48.610;9.334;2023-12-20T01:21:27;2.07;;;0.67;;
60588;SDS011;46421;48.610;9.334;2023-12-20T01:23:53;1.63;;;0.57;;
60588;SDS011;46421;48.610;9.334;2023-12-20T01:26:18;0.70;;;0.40;;
60588;SDS011;46421;48.610;9.334;2023-12-20T01:28:43;2.00;;;0.80;;
60588;SDS011;46421;48.610;9.334;2023-12-20T01:31:09;2.87;;;0.77;;
60588;SDS011;46421;48.610;9.334;2023-12-20T01:33:34;1.87;;;0.63;;
60588;SDS011;46421;48.610;9.334;2023-12-20T01:36:00;1.23;;;0.83;;
60588;SDS011;46421;48.610;9.334;2023-12-20T01:38:25;2.03;;;1.10;;
60588;SDS011;46421;48.610;9.334;2023-12-20T01:40:50;1.30;;;0.77;;
60588;SDS011;46421;48.610;9.334;2023-12-20T01:43:16;1.50;;;0.77;;
60588;SDS011;46421;48.610;9.334;2023-12-20T01:45:41;1.58;;;0.60;;
60588;SDS011;46421;48.610;9.334;2023-12-20T01:48:07;1.63;;;0.70;;
60588;SDS011;46421;48.610;9.334;2023-12-20T01:50:33;2.10;;;0.63;;
60588;SDS011;46421;48.610;9.334;2023-12-20T01:53:09;4.75;;;0.70;;
60588;SDS011;46421;48.610;9.334;2023-12-20T01:55:36;2.17;;;0.75;;
60588;SDS011;46421;48.610;9.334;2023-12-20T01:58:04;2.33;;;0.77;;
60588;SDS011;46421;48.610;9.334;2023-12-20T02:00:30;1.10;;;0.47;;
60588;SDS011;46421;48.610;9.334;2023-12-20T02:02:56;2.25;;;0.57;;
60588;SDS011;46421;48.610;9.334;2023-12-20T02:05:22;1.15;;;0.50;;
60588;SDS011;46421;48.610;9.334;2023-12-20T02:07:48;1.50;;;0.80;;
60588;SDS011;46421;48.610;9.334;2023-12-20T02:10:14;1.95;;;0.57;;
60588;SDS011;46421;48.610;9.334;2023-12-20T02:12:40;1.25;;;0.60;;
60588;SDS011;46421;48.610;9.334;2023-12-20T02:15:06;1.38;;;0.52;;
60588;SDS011;46421;48.610;9.334;2023-12-20T02:17:32;2.17;;;0.82;;
60588;SDS011;46421;48.610;9.334;2023-12-20T02:19:57;1.13;;;0.35;;
60588;SDS011;46421;48.610;9.334;2023-12-20T02:22:22;1.47;;;0.50;;
60588;SDS011;46421;48.610;9.334;2023-12-20T02:24:48;2.22;;;0.68;;
60588;SDS011;46421;48.610;9.334;2023-12-20T02:27:13;1.43;;;0.60;;
60588;SDS011;46421;48.610;9.334;2023-12-20T02:29:40;2.15;;;0.52;;
60588;SDS011;46421;48.610;9.334;2023-12-20T02:32:06;3.42;;;0.77;;
60588;SDS011;46421;48.610;9.334;2023-12-20T02:34:31;1.48;;;0.70;;
60588;SDS011;46421;48.610;9.334;2023-12-20T02:36:56;1.30;;;0.60;;
60588;SDS011;46421;48.610;9.334;2023-12-20T02:39:22;2.20;;;0.60;;
60588;SDS011;46421;48.610;9.334;2023-12-20T02:41:48;1.27;;;0.45;;
60588;SDS011;46421;48.610;9.334;2023-12-20T02:44:13;1.30;;;0.50;;
60588;SDS011;46421;48.610;9.334;2023-12-20T02:46:39;1.73;;;0.70;;
60588;SDS011;46421;48.610;9.334;2023-12-20T02:49:04;1.88;;;0.70;;
60588;SDS011;46421;48.610;9.334;2023-12-20T02:51:29;2.03;;;0.70;;
60588;SDS011;46421;48.610;9.334;2023-12-20T02:53:55;1.42;;;0.40;;
60588;SDS011;46421;48.610;9.334;2023-12-20T02:56:20;1.03;;;0.50;;
60588;SDS011;46421;48.610;9.334;2023-12-20T02:58:46;1.38;;;0.60;;
60588;SDS011;46421;48.610;9.334;2023-12-20T03:01:11;1.63;;;0.50;;
60588;SDS011;46421;48.610;9.334;2023-12-20T03:03:36;1.40;;;0.60;;
60588;SDS011;46421;48.610;9.334;2023-12-20T03:06:02;2.67;;;0.80;;
60588;SDS011;46421;48.610;9.334;2023-12-20T03:08:27;1.55;;;0.50;;
60588;SDS011;46421;48.610;9.334;2023-12-20T03:10:52;1.37;;;0.40;;
60588;SDS011;46421;48.610;9.334;2023-12-20T03:13:18;0.70;;;0.45;;
60588;SDS011;46421;48.610;9.334;2023-12-20T03:15:44;1.00;;;0.52;;
60588;SDS011;46421;48.610;9.334;2023-12-20T03:18:10;0.75;;;0.55;;
60588;SDS011;46421;48.610;9.334;2023-12-20T03:20:35;1.42;;;0.50;;
60588;SDS011;46421;48.610;9.334;2023-12-20T03:23:00;2.08;;;0.63;;
60588;SDS011;46421;48.610;9.334;2023-12-20T03:25:26;1.58;;;0.73;;
60588;SDS011;46421;48.610;9.334;2023-12-20T03:27:52;1.30;;;0.57;;
60588;SDS011;46421;48.610;9.334;2023-12-20T03:30:17;2.78;;;0.63;;
60588;SDS011;46421;48.610;9.334;2023-12-20T03:32:43;1.45;;;0.60;;
60588;SDS011;46421;48.610;9.334;2023-12-20T03:35:09;1.60;;;0.60;;
60588;SDS011;46421;48.610;9.334;2023-12-20T03:37:35;1.30;;;0.63;;
60588;SDS011;46421;48.610;9.334;2023-12-20T03:40:00;1.10;;;0.55;;
60588;SDS011;46421;48.610;9.334;2023-12-20T03:42:26;1.63;;;0.70;;
60588;SDS011;46421;48.610;9.334;2023-12-20T03:44:51;1.53;;;0.60;;
60588;SDS011;46421;48.610;9.334;2023-12-20T03:47:17;1.52;;;0.60;;
60588;SDS011;46421;48.610;9.334;2023-12-20T03:49:42;2.10;;;0.50;;
60588;SDS011;46421;48.610;9.334;2023-12-20T03:52:07;1.47;;;0.57;;
60588;SDS011;46421;48.610;9.334;2023-12-20T03:54:33;1.83;;;0.73;;
60588;SDS011;46421;48.610;9.334;2023-12-20T03:56:59;1.70;;;0.50;;
60588;SDS011;46421;48.610;9.334;2023-12-20T03:59:25;1.15;;;0.60;;
60588;SDS011;46421;48.610;9.334;2023-12-20T04:01:50;2.00;;;0.60;;
60588;SDS011;46421;48.610;9.334;2023-12-20T04:04:16;1.05;;;0.52;;
60588;SDS011;46421;48.610;9.334;2023-12-20T04:06:41;1.05;;;0.57;;
60588;SDS011;46421;48.610;9.334;2023-12-20T04:09:06;0.50;;;0.40;;
60588;SDS011;46421;48.610;9.334;2023-12-20T04:11:36;0.88;;;0.40;;
60588;SDS011;46421;48.610;9.334;2023-12-20T04:14:02;0.73;;;0.43;;
60588;SDS011;46421;48.610;9.334;2023-12-20T04:16:27;1.10;;;0.50;;
60588;SDS011;46421;48.610;9.334;2023-12-20T04:18:53;1.48;;;0.60;;
60588;SDS011;46421;48.610;9.334;2023-12-20T04:21:18;1.15;;;0.38;;
60588;SDS011;46421;48.610;9.334;2023-12-20T04:23:43;1.67;;;0.50;;
60588;SDS011;46421;48.610;9.334;2023-12-20T04:26:09;0.87;;;0.50;;
60588;SDS011;46421;48.610;9.334;2023-12-20T04:28:35;0.93;;;0.45;;
60588;SDS011;46421;48.610;9.334;2023-12-20T04:31:00;0.50;;;0.30;;
60588;SDS011;46421;48.610;9.334;2023-12-20T04:33:25;1.00;;;0.43;;
60588;SDS011;46421;48.610;9.334;2023-12-20T04:35:51;0.57;;;0.20;;
60588;SDS011;46421;48.610;9.334;2023-12-20T04:38:16;0.85;;;0.32;;
60588;SDS011;46421;48.610;9.334;2023-12-20T04:40:42;1.90;;;0.30;;
60588;SDS011;46421;48.610;9.334;2023-12-20T04:43:07;0.88;;;0.20;;
60588;SDS011;46421;48.610;9.334;2023-12-20T04:45:33;0.60;;;0.30;;
60588;SDS011;46421;48.610;9.334;2023-12-20T04:47:59;1.05;;;0.40;;
60588;SDS011;46421;48.610;9.334;2023-12-20T04:50:24;0.47;;;0.30;;
60588;SDS011;46421;48.610;9.334;2023-12-20T04:52:50;0.90;;;0.60;;
60588;SDS011;46421;48.610;9.334;2023-12-20T04:55:15;0.65;;;0.20;;
60588;SDS011;46421;48.610;9.334;2023-12-20T04:57:41;0.55;;;0.10;;
60588;SDS011;46421;48.610;9.334;2023-12-20T05:00:06;0.57;;;0.20;;
60588;SDS011;46421;48.610;9.334;2023-12-20T05:02:34;0.40;;;0.32;;
60588;SDS011;46421;48.610;9.334;2023-12-20T05:05:00;0.55;;;0.25;;
60588;SDS011;46421;48.610;9.334;2023-12-20T05:07:25;0.20;;;0.20;;
60588;SDS011;46421;48.610;9.334;2023-12-20T05:09:50;0.40;;;0.20;;
60588;SDS011;46421;48.610;9.334;2023-12-20T05:12:16;0.75;;;0.40;;
60588;SDS011;46421;48.610;9.334;2023-12-20T05:14:41;0.73;;;0.30;;
60588;SDS011;46421;48.610;9.334;2023-12-20T05:17:07;0.83;;;0.30;;
60588;SDS011;46421;48.610;9.334;2023-12-20T05:19:32;0.20;;;0.20;;
60588;SDS011;46421;48.610;9.334;2023-12-20T05:22:00;0.73;;;0.30;;
60588;SDS011;46421;48.610;9.334;2023-12-20T05:24:26;0.20;;;0.17;;
60588;SDS011;46421;48.610;9.334;2023-12-20T05:26:55;0.75;;;0.40;;
60588;SDS011;46421;48.610;9.334;2023-12-20T05:29:20;0.67;;;0.37;;
60588;SDS011;46421;48.610;9.334;2023-12-20T05:31:45;1.25;;;0.25;;
60588;SDS011;46421;48.610;9.334;2023-12-20T05:34:11;0.50;;;0.20;;
60588;SDS011;46421;48.610;9.334;2023-12-20T05:36:36;0.83;;;0.30;;
60588;SDS011;46421;48.610;9.334;2023-12-20T05:39:02;0.98;;;0.28;;
60588;SDS011;46421;48.610;9.334;2023-12-20T05:41:30;0.43;;;0.30;;
60588;SDS011;46421;48.610;9.334;2023-12-20T05:43:55;1.02;;;0.30;;
60588;SDS011;46421;48.610;9.334;2023-12-20T05:48:48;0.80;;;0.30;;
60588;SDS011;46421;48.610;9.334;2023-12-20T05:51:13;0.50;;;0.22;;
60588;SDS011;46421;48.610;9.334;2023-12-20T05:53:39;0.20;;;0.10;;
60588;SDS011;46421;48.610;9.334;2023-12-20T05:56:04;0.63;;;0.20;;
60588;SDS011;46421;48.610;9.334;2023-12-20T05:58:29;0.55;;;0.17;;
60588;SDS011;46421;48.610;9.334;2023-12-20T06:00:55;0.35;;;0.20;;
60588;SDS011;46421;48.610;9.334;2023-12-20T06:03:20;2.03;;;0.45;;
60588;SDS011;46421;48.610;9.334;2023-12-20T06:05:46;0.00;;;0.00;;
60588;SDS011;46421;48.610;9.334;2023-12-20T06:08:11;0.17;;;0.07;;
60588;SDS011;46421;48.610;9.334;2023-12-20T06:10:37;1.63;;;0.40;;
60588;SDS011;46421;48.610;9.334;2023-12-20T06:13:02;1.67;;;0.43;;
60588;SDS011;46421;48.610;9.334;2023-12-20T06:15:29;0.63;;;0.30;;
60588;SDS011;46421;48.610;9.334;2023-12-20T06:17:54;0.20;;;0.20;;
60588;SDS011;46421;48.610;9.334;2023-12-20T06:20:20;0.67;;;0.20;;
60588;SDS011;46421;48.610;9.334;2023-12-20T06:22:45;1.52;;;0.40;;
60588;SDS011;46421;48.610;9.334;2023-12-20T06:25:10;0.40;;;0.33;;
60588;SDS011;46421;48.610;9.334;2023-12-20T06:27:36;0.53;;;0.30;;
60588;SDS011;46421;48.610;9.334;2023-12-20T06:30:01;0.75;;;0.30;;
60588;SDS011;46421;48.610;9.334;2023-12-20T06:32:27;0.57;;;0.30;;
60588;SDS011;46421;48.610;9.334;2023-12-20T06:34:54;1.00;;;0.30;;
60588;SDS011;46421;48.610;9.334;2023-12-20T06:37:19;1.60;;;0.60;;
60588;SDS011;46421;48.610;9.334;2023-12-20T06:39:44;1.20;;;0.35;;
60588;SDS011;46421;48.610;9.334;2023-12-20T06:42:10;1.73;;;0.40;;
60588;SDS011;46421;48.610;9.334;2023-12-20T06:44:35;0.22;;;0.15;;
60588;SDS011;46421;48.610;9.334;2023-12-20T06:47:01;2.92;;;0.38;;
60588;SDS011;46421;48.610;9.334;2023-12-20T06:49:27;0.77;;;0.40;;
60588;SDS011;46421;48.610;9.334;2023-12-20T06:51:52;0.63;;;0.35;;
60588;SDS011;46421;48.610;9.334;2023-12-20T06:54:18;1.33;;;0.52;;
60588;SDS011;46421;48.610;9.334;2023-12-20T06:56:43;0.93;;;0.50;;
60588;SDS011;46421;48.610;9.334;2023-12-20T06:59:09;0.70;;;0.20;;
60588;SDS011;46421;48.610;9.334;2023-12-20T07:01:34;0.33;;;0.23;;
60588;SDS011;46421;48.610;9.334;2023-12-20T07:03:59;0.87;;;0.50;;
60588;SDS011;46421;48.610;9.334;2023-12-20T07:06:25;0.87;;;0.40;;
60588;SDS011;46421;48.610;9.334;2023-12-20T07:08:50;1.02;;;0.30;;
60588;SDS011;46421;48.610;9.334;2023-12-20T07:11:16;0.75;;;0.30;;
60588;SDS011;46421;48.610;9.334;2023-12-20T07:13:42;1.27;;;0.60;;
60588;SDS011;46421;48.610;9.334;2023-12-20T07:16:07;0.77;;;0.50;;
60588;SDS011;46421;48.610;9.334;2023-12-20T07:18:33;1.03;;;0.40;;
60588;SDS011;46421;48.610;9.334;2023-12-20T07:20:58;2.63;;;0.60;;
60588;SDS011;46421;48.610;9.334;2023-12-20T07:23:23;1.80;;;0.60;;
60588;SDS011;46421;48.610;9.334;2023-12-20T07:25:50;1.52;;;0.75;;
60588;SDS011;46421;48.610;9.334;2023-12-20T07:28:16;1.58;;;0.50;;
60588;SDS011;46421;48.610;9.334;2023-12-20T07:30:41;0.63;;;0.38;;
60588;SDS011;46421;48.610;9.334;2023-12-20T07:33:06;1.63;;;0.50;;
60588;SDS011;46421;48.610;9.334;2023-12-20T07:35:34;1.67;;;0.55;;
60588;SDS011;46421;48.610;9.334;2023-12-20T07:37:59;0.80;;;0.40;;
60588;SDS011;46421;48.610;9.334;2023-12-20T07:40:24;0.73;;;0.40;;
60588;SDS011;46421;48.610;9.334;2023-12-20T07:42:50;1.17;;;0.38;;
60588;SDS011;46421;48.610;9.334;2023-12-20T07:45:15;1.53;;;0.50;;
60588;SDS011;46421;48.610;9.334;2023-12-20T07:47:41;1.73;;;0.50;;
60588;SDS011;46421;48.610;9.334;2023-12-20T07:50:06;0.65;;;0.32;;
60588;SDS011;46421;48.610;9.334;2023-12-20T07:52:31;0.90;;;0.50;;
60588;SDS011;46421;48.610;9.334;2023-12-20T07:54:57;1.55;;;0.50;;
60588;SDS011;46421;48.610;9.334;2023-12-20T07:57:23;1.13;;;0.50;;
60588;SDS011;46421;48.610;9.334;2023-12-20T07:59:48;1.17;;;0.40;;
60588;SDS011;46421;48.610;9.334;2023-12-20T08:02:14;1.08;;;0.60;;
60588;SDS011;46421;48.610;9.334;2023-12-20T08:04:39;1.35;;;0.70;;
60588;SDS011;46421;48.610;9.334;2023-12-20T08:07:05;1.00;;;0.50;;
60588;SDS011;46421;48.610;9.334;2023-12-20T08:09:31;2.38;;;0.73;;
60588;SDS011;46421;48.610;9.334;2023-12-20T08:11:58;1.35;;;0.55;;
60588;SDS011;46421;48.610;9.334;2023-12-20T08:14:24;2.83;;;0.90;;
60588;SDS011;46421;48.610;9.334;2023-12-20T08:16:50;1.33;;;0.80;;
60588;SDS011;46421;48.610;9.334;2023-12-20T08:19:15;2.43;;;0.87;;
60588;SDS011;46421;48.610;9.334;2023-12-20T08:21:41;1.50;;;0.80;;
60588;SDS011;46421;48.610;9.334;2023-12-20T08:24:06;1.93;;;0.60;;
60588;SDS011;46421;48.610;9.334;2023-12-20T08:26:33;1.20;;;0.60;;
60588;SDS011;46421;48.610;9.334;2023-12-20T08:28:58;1.43;;;0.60;;
60588;SDS011;46421;48.610;9.334;2023-12-20T08:31:23;1.40;;;0.53;;
60588;SDS011;46421;48.610;9.334;2023-12-20T08:33:49;3.17;;;0.90;;
60588;SDS011;46421;48.610;9.334;2023-12-20T08:36:14;0.98;;;0.38;;
60588;SDS011;46421;48.610;9.334;2023-12-20T08:38:40;1.75;;;0.65;;
60588;SDS011;46421;48.610;9.334;2023-12-20T08:41:06;3.00;;;0.70;;
60588;SDS011;46421;48.610;9.334;2023-12-20T08:43:32;1.35;;;0.52;;
60588;SDS011;46421;48.610;9.334;2023-12-20T08:45:57;1.83;;;0.73;;
60588;SDS011;46421;48.610;9.334;2023-12-20T08:48:22;1.27;;;0.45;;
60588;SDS011;46421;48.610;9.334;2023-12-20T08:50:48;1.20;;;0.52;;
60588;SDS011;46421;48.610;9.334;2023-12-20T08:53:15;2.22;;;0.60;;
60588;SDS011;46421;48.610;9.334;2023-12-20T08:55:42;1.23;;;0.40;;
60588;SDS011;46421;48.610;9.334;2023-12-20T08:58:07;1.48;;;0.50;;
60588;SDS011;46421;48.610;9.334;2023-12-20T09:00:33;1.70;;;0.80;;
60588;SDS011;46421;48.610;9.334;2023-12-20T09:02:59;2.08;;;0.70;;
60588;SDS011;46421;48.610;9.334;2023-12-20T09:05:24;2.42;;;1.08;;
60588;SDS011;46421;48.610;9.334;2023-12-20T09:07:50;3.10;;;0.95;;
60588;SDS011;46421;48.610;9.334;2023-12-20T09:10:15;2.03;;;0.87;;
60588;SDS011;46421;48.610;9.334;2023-12-20T09:12:41;2.67;;;0.88;;
60588;SDS011;46421;48.610;9.334;2023-12-20T09:15:07;4.95;;;1.58;;
60588;SDS011;46421;48.610;9.334;2023-12-20T09:17:33;7.85;;;2.70;;
60588;SDS011;46421;48.610;9.334;2023-12-20T09:19:58;4.63;;;1.45;;
60588;SDS011;46421;48.610;9.334;2023-12-20T09:22:25;2.33;;;0.88;;
60588;SDS011;46421;48.610;9.334;2023-12-20T09:24:50;1.20;;;0.52;;
60588;SDS011;46421;48.610;9.334;2023-12-20T09:27:15;2.90;;;1.05;;
60588;SDS011;46421;48.610;9.334;2023-12-20T09:29:41;3.33;;;1.10;;
60588;SDS011;46421;48.610;9.334;2023-12-20T09:32:06;2.70;;;0.97;;
60588;SDS011;46421;48.610;9.334;2023-12-20T09:34:32;5.53;;;2.00;;
60588;SDS011;46421;48.610;9.334;2023-12-20T09:36:58;4.55;;;1.33;;
60588;SDS011;46421;48.610;9.334;2023-12-20T09:39:23;3.50;;;0.93;;
60588;SDS011;46421;48.610;9.334;2023-12-20T09:41:51;1.52;;;0.60;;
60588;SDS011;46421;48.610;9.334;2023-12-20T09:44:24;5.97;;;1.00;;
60588;SDS011;46421;48.610;9.334;2023-12-20T09:46:49;1.67;;;0.60;;
60588;SDS011;46421;48.610;9.334;2023-12-20T09:49:17;4.97;;;1.10;;
60588;SDS011;46421;48.610;9.334;2023-12-20T09:51:43;4.18;;;1.40;;
60588;SDS011;46421;48.610;9.334;2023-12-20T09:54:11;2.78;;;0.90;;
60588;SDS011;46421;48.610;9.334;2023-12-20T09:56:39;1.38;;;0.65;;
60588;SDS011;46421;48.610;9.334;2023-12-20T09:59:04;2.17;;;0.70;;
60588;SDS011;46421;48.610;9.334;2023-12-20T10:01:29;2.03;;;0.90;;
60588;SDS011;46421;48.610;9.334;2023-12-20T10:03:55;3.88;;;1.30;;
60588;SDS011;46421;48.610;9.334;2023-12-20T10:06:21;3.10;;;0.90;;
60588;SDS011;46421;48.610;9.334;2023-12-20T10:08:47;2.05;;;0.90;;
60588;SDS011;46421;48.610;9.334;2023-12-20T10:11:12;4.10;;;0.80;;
60588;SDS011;46421;48.610;9.334;2023-12-20T10:13:39;2.50;;;0.85;;
60588;SDS011;46421;48.610;9.334;2023-12-20T10:16:06;1.75;;;0.57;;
60588;SDS011;46421;48.610;9.334;2023-12-20T10:18:32;2.08;;;0.68;;
60588;SDS011;46421;48.610;9.334;2023-12-20T10:20:57;2.00;;;0.77;;
60588;SDS011;46421;48.610;9.334;2023-12-20T10:23:23;5.93;;;0.70;;
60588;SDS011;46421;48.610;9.334;2023-12-20T10:25:58;2.35;;;0.90;;
60588;SDS011;46421;48.610;9.334;2023-12-20T10:28:25;2.42;;;0.80;;
60588;SDS011;46421;48.610;9.334;2023-12-20T10:30:53;3.33;;;1.02;;
60588;SDS011;46421;48.610;9.334;2023-12-20T10:33:26;2.13;;;0.70;;
60588;SDS011;46421;48.610;9.334;2023-12-20T10:35:53;2.67;;;0.93;;
60588;SDS011;46421;48.610;9.334;2023-12-20T10:38:19;2.42;;;0.80;;
60588;SDS011;46421;48.610;9.334;2023-12-20T10:40:45;2.75;;;0.75;;
60588;SDS011;46421;48.610;9.334;2023-12-20T10:43:11;5.60;;;1.25;;
60588;SDS011;46421;48.610;9.334;2023-12-20T10:45:36;5.30;;;1.17;;
60588;SDS011;46421;48.610;9.334;2023-12-20T10:48:02;3.10;;;0.98;;
60588;SDS011;46421;48.610;9.334;2023-12-20T10:50:28;5.50;;;0.80;;
60588;SDS011;46421;48.610;9.334;2023-12-20T10:52:55;4.88;;;1.02;;
60588;SDS011;46421;48.610;9.334;2023-12-20T10:55:23;2.30;;;0.73;;
60588;SDS011;46421;48.610;9.334;2023-12-20T10:57:54;3.03;;;1.00;;
60588;SDS011;46421;48.610;9.334;2023-12-20T11:00:20;5.57;;;1.42;;
60588;SDS011;46421;48.610;9.334;2023-12-20T11:02:46;2.58;;;1.05;;
60588;SDS011;46421;48.610;9.334;2023-12-20T11:05:36;2.25;;;0.68;;
60588;SDS011;46421;48.610;9.334;2023-12-20T11:08:11;3.60;;;0.77;;
60588;SDS011;46421;48.610;9.334;2023-12-20T11:10:42;2.38;;;0.70;;
60588;SDS011;46421;48.610;9.334;2023-12-20T11:15:48;1.48;;;0.70;;
60588;SDS011;46421;48.610;9.334;2023-12-20T11:18:14;2.00;;;0.70;;
60588;SDS011;46421;48.610;9.334;2023-12-20T11:20:41;2.72;;;0.80;;
60588;SDS011;46421;48.610;9.334;2023-12-20T11:23:07;3.03;;;0.73;;
60588;SDS011;46421;48.610;9.334;2023-12-20T11:25:45;3.70;;;1.02;;
60588;SDS011;46421;48.610;9.334;2023-12-20T11:28:11;2.83;;;0.80;;
60588;SDS011;46421;48.610;9.334;2023-12-20T11:30:40;2.95;;;0.95;;
60588;SDS011;46421;48.610;9.334;2023-12-20T11:33:11;2.47;;;0.82;;
60588;SDS011;46421;48.610;9.334;2023-12-20T11:35:36;5.10;;;1.48;;
60588;SDS011;46421;48.610;9.334;2023-12-20T11:38:02;1.08;;;0.50;;
60588;SDS011;46421;48.610;9.334;2023-12-20T11:40:27;6.40;;;0.90;;
60588;SDS011;46421;48.610;9.334;2023-12-20T11:42:52;2.87;;;0.90;;
60588;SDS011;46421;48.610;9.334;2023-12-20T11:45:23;2.10;;;0.80;;
60588;SDS011;46421;48.610;9.334;2023-12-20T11:47:49;3.78;;;1.10;;
60588;SDS011;46421;48.610;9.334;2023-12-20T11:50:16;1.42;;;0.50;;
60588;SDS011;46421;48.610;9.334;2023-12-20T11:52:45;1.67;;;0.63;;
60588;SDS011;46421;48.610;9.334;2023-12-20T11:55:10;1.65;;;0.63;;
60588;SDS011;46421;48.610;9.334;2023-12-20T11:57:36;0.95;;;0.60;;
60588;SDS011;46421;48.610;9.334;2023-12-20T12:00:02;1.08;;;0.60;;
60588;SDS011;46421;48.610;9.334;2023-12-20T12:02:28;2.85;;;1.17;;
60588;SDS011;46421;48.610;9.334;2023-12-20T12:04:54;2.25;;;0.45;;
60588;SDS011;46421;48.610;9.334;2023-12-20T12:07:21;1.95;;;0.90;;
60588;SDS011;46421;48.610;9.334;2023-12-20T12:09:47;2.60;;;0.50;;
60588;SDS011;46421;48.610;9.334;2023-12-20T12:12:13;0.77;;;0.40;;
60588;SDS011;46421;48.610;9.334;2023-12-20T12:14:38;2.35;;;0.60;;
60588;SDS011;46421;48.610;9.334;2023-12-20T12:17:09;1.95;;;0.50;;
60588;SDS011;46421;48.610;9.334;2023-12-20T12:19:39;3.35;;;0.60;;
60588;SDS011;46421;48.610;9.334;2023-12-20T12:22:05;3.30;;;0.98;;
60588;SDS011;46421;48.610;9.334;2023-12-20T12:24:37;3.42;;;0.95;;
60588;SDS011;46421;48.610;9.334;2023-12-20T12:27:05;3.50;;;1.10;;
60588;SDS011;46421;48.610;9.334;2023-12-20T12:29:31;5.70;;;0.90;;
60588;SDS011;46421;48.610;9.334;2023-12-20T12:31:56;2.03;;;0.60;;
60588;SDS011;46421;48.610;9.334;2023-12-20T12:34:21;2.50;;;0.57;;
60588;SDS011;46421;48.610;9.334;2023-12-20T12:36:48;1.42;;;0.60;;
60588;SDS011;46421;48.610;9.334;2023-12-20T12:39:13;3.60;;;0.90;;
60588;SDS011;46421;48.610;9.334;2023-12-20T12:41:40;2.45;;;0.90;;
60588;SDS011;46421;48.610;9.334;2023-12-20T12:44:06;2.38;;;0.80;;
60588;SDS011;46421;48.610;9.334;2023-12-20T12:46:31;2.37;;;0.40;;
60588;SDS011;46421;48.610;9.334;2023-12-20T12:48:57;3.40;;;0.90;;
60588;SDS011;46421;48.610;9.334;2023-12-20T12:51:23;2.42;;;0.57;;
60588;SDS011;46421;48.610;9.334;2023-12-20T12:53:48;0.93;;;0.40;;
60588;SDS011;46421;48.610;9.334;2023-12-20T12:56:13;2.73;;;0.60;;
60588;SDS011;46421;48.610;9.334;2023-12-20T12:58:40;1.90;;;0.70;;
60588;SDS011;46421;48.610;9.334;2023-12-20T13:01:06;3.92;;;0.80;;
60588;SDS011;46421;48.610;9.334;2023-12-20T13:03:31;1.77;;;0.75;;
60588;SDS011;46421;48.610;9.334;2023-12-20T13:05:56;5.70;;;1.08;;
60588;SDS011;46421;48.610;9.334;2023-12-20T13:08:22;5.05;;;1.10;;
60588;SDS011;46421;48.610;9.334;2023-12-20T13:10:47;2.28;;;0.73;;
60588;SDS011;46421;48.610;9.334;2023-12-20T13:13:13;1.38;;;0.68;;
60588;SDS011;46421;48.610;9.334;2023-12-20T13:15:38;3.60;;;0.63;;
60588;SDS011;46421;48.610;9.334;2023-12-20T13:18:04;3.03;;;0.50;;
60588;SDS011;46421;48.610;9.334;2023-12-20T13:20:31;1.27;;;0.43;;
60588;SDS011;46421;48.610;9.334;2023-12-20T13:22:56;0.90;;;0.40;;
60588;SDS011;46421;48.610;9.334;2023-12-20T13:25:21;4.80;;;1.05;;
60588;SDS011;46421;48.610;9.334;2023-12-20T13:27:50;1.23;;;0.65;;
60588;SDS011;46421;48.610;9.334;2023-12-20T13:30:16;1.45;;;0.80;;
60588;SDS011;46421;48.610;9.334;2023-12-20T13:32:42;2.55;;;0.57;;
60588;SDS011;46421;48.610;9.334;2023-12-20T13:35:07;1.10;;;0.30;;
60588;SDS011;46421;48.610;9.334;2023-12-20T13:37:33;3.30;;;0.60;;
60588;SDS011;46421;48.610;9.334;2023-12-20T13:39:59;1.73;;;0.50;;
60588;SDS011;46421;48.610;9.334;2023-12-20T13:42:24;1.77;;;0.60;;
60588;SDS011;46421;48.610;9.334;2023-12-20T13:44:52;2.25;;;0.80;;
60588;SDS011;46421;48.610;9.334;2023-12-20T13:47:18;4.45;;;0.80;;
60588;SDS011;46421;48.610;9.334;2023-12-20T13:49:44;1.05;;;0.47;;
60588;SDS011;46421;48.610;9.334;2023-12-20T13:52:10;0.80;;;0.47;;
60588;SDS011;46421;48.610;9.334;2023-12-20T13:54:36;1.80;;;0.55;;
60588;SDS011;46421;48.610;9.334;2023-12-20T13:57:01;3.20;;;0.73;;
60588;SDS011;46421;48.610;9.334;2023-12-20T13:59:28;2.53;;;0.68;;
60588;SDS011;46421;48.610;9.334;2023-12-20T14:01:53;2.65;;;0.60;;
60588;SDS011;46421;48.610;9.334;2023-12-20T14:04:18;3.20;;;0.52;;
60588;SDS011;46421;48.610;9.334;2023-12-20T14:06:45;2.72;;;0.70;;
60588;SDS011;46421;48.610;9.334;2023-12-20T14:09:10;2.80;;;0.98;;
60588;SDS011;46421;48.610;9.334;2023-12-20T14:11:37;1.40;;;0.55;;
60588;SDS011;46421;48.610;9.334;2023-12-20T14:14:06;1.20;;;0.47;;
60588;SDS011;46421;48.610;9.334;2023-12-20T14:16:32;3.60;;;1.00;;
60588;SDS011;46421;48.610;9.334;2023-12-20T14:18:58;2.42;;;0.88;;
60588;SDS011;46421;48.610;9.334;2023-12-20T14:21:24;3.10;;;0.97;;
60588;SDS011;46421;48.610;9.334;2023-12-20T14:23:49;2.90;;;0.80;;
60588;SDS011;46421;48.610;9.334;2023-12-20T14:26:15;1.77;;;0.70;;
60588;SDS011;46421;48.610;9.334;2023-12-20T14:28:41;2.60;;;0.90;;
60588;SDS011;46421;48.610;9.334;2023-12-20T14:31:07;2.67;;;0.80;;
60588;SDS011;46421;48.610;9.334;2023-12-20T14:33:33;2.67;;;0.63;;
60588;SDS011;46421;48.610;9.334;2023-12-20T14:35:58;3.63;;;0.80;;
60588;SDS011;46421;48.610;9.334;2023-12-20T14:38:25;1.92;;;0.70;;
60588;SDS011;46421;48.610;9.334;2023-12-20T14:40:50;5.40;;;0.80;;
60588;SDS011;46421;48.610;9.334;2023-12-20T14:43:16;3.47;;;0.80;;
60588;SDS011;46421;48.610;9.334;2023-12-20T14:45:41;1.60;;;0.77;;